createdAt,value
2022-12-25T00:00:35.605Z,6.47
2022-12-25T00:03:02.549Z,6.51
2022-12-25T00:05:29.362Z,6.52
2022-12-25T00:07:56.119Z,6.57
2022-12-25T00:10:22.967Z,6.58
2022-12-25T00:12:49.926Z,6.57
2022-12-25T00:15:16.926Z,6.57
2022-12-25T00:17:43.874Z,6.59
2022-12-25T00:20:10.656Z,6.58
2022-12-25T00:22:37.652Z,6.59
2022-12-25T00:25:04.905Z,6.61
2022-12-25T00:27:34.001Z,6.62
2022-12-25T00:30:01.860Z,6.64
2022-12-25T00:32:28.514Z,6.64
2022-12-25T00:34:55.127Z,6.63
2022-12-25T00:37:21.887Z,6.63
2022-12-25T00:39:49.873Z,6.59
2022-12-25T00:42:19.504Z,6.62
2022-12-25T00:44:48.335Z,6.59
2022-12-25T00:47:16.717Z,6.60
2022-12-25T00:49:43.937Z,6.62
2022-12-25T00:52:10.756Z,6.61
2022-12-25T00:54:37.759Z,6.58
2022-12-25T00:57:04.670Z,6.57
2022-12-25T00:59:32.944Z,6.57
2022-12-25T01:02:18.711Z,6.43
2022-12-25T01:04:45.609Z,6.51
2022-12-25T01:07:12.538Z,6.44
2022-12-25T01:09:58.176Z,6.44
2022-12-25T01:12:24.953Z,6.33
2022-12-25T01:14:51.490Z,6.36
2022-12-25T01:17:18.467Z,6.28
2022-12-25T01:19:45.290Z,6.21
2022-12-25T01:22:11.955Z,6.13
2022-12-25T01:24:38.736Z,6.04
2022-12-25T01:27:05.367Z,5.96
2022-12-25T01:29:31.983Z,5.92
2022-12-25T01:31:58.769Z,5.91
2022-12-25T01:34:25.493Z,5.91
2022-12-25T01:36:52.234Z,5.91
2022-12-25T01:39:18.963Z,5.92
2022-12-25T01:41:45.675Z,5.94
2022-12-25T01:44:35.078Z,5.80
2022-12-25T01:47:05.642Z,5.95
2022-12-25T01:49:36.557Z,6.00
2022-12-25T01:52:05.735Z,6.03
2022-12-25T01:54:38.456Z,6.05
2022-12-25T01:57:09.044Z,6.07
2022-12-25T01:59:35.845Z,6.07
2022-12-25T02:02:03.734Z,6.03
2022-12-25T02:04:39.445Z,6.01
2022-12-25T02:07:14.176Z,5.98
2022-12-25T02:09:41.753Z,5.87
2022-12-25T02:12:12.308Z,5.92
2022-12-25T02:14:39.049Z,5.94
2022-12-25T02:17:08.652Z,5.93
2022-12-25T02:19:47.522Z,5.94
2022-12-25T02:22:14.056Z,5.90
2022-12-25T02:24:50.389Z,5.90
2022-12-25T02:27:45.660Z,5.86
2022-12-25T02:30:13.212Z,5.85
2022-12-25T02:33:20.173Z,5.84
2022-12-25T02:35:53.100Z,5.80
2022-12-25T02:38:31.400Z,5.84
2022-12-25T02:41:02.478Z,5.82
2022-12-25T02:43:55.750Z,5.82
2022-12-25T02:46:43.242Z,5.79
2022-12-25T02:49:34.349Z,5.75
2022-12-25T02:52:31.055Z,5.74
2022-12-25T02:55:28.635Z,5.69
2022-12-25T02:58:18.365Z,5.66
2022-12-25T03:01:07.056Z,5.62
2022-12-25T03:03:56.782Z,5.60
2022-12-25T03:06:45.808Z,5.55
2022-12-25T03:09:41.213Z,5.51
2022-12-25T03:12:37.680Z,5.46
2022-12-25T03:15:24.824Z,5.38
2022-12-25T03:17:51.758Z,5.28
2022-12-25T03:20:37.289Z,5.25
2022-12-25T03:23:27.308Z,5.16
2022-12-25T03:26:12.743Z,5.12
2022-12-25T03:28:39.370Z,5.09
2022-12-25T03:31:18.479Z,5.07
2022-12-25T03:34:32.693Z,5.00
2022-12-25T03:37:23.282Z,4.96
2022-12-25T03:40:49.553Z,4.96
2022-12-25T03:44:10.528Z,4.92
2022-12-25T03:47:04.294Z,4.88
2022-12-25T03:50:04.290Z,4.87
2022-12-25T03:52:50.372Z,4.83
2022-12-25T03:55:38.063Z,4.84
2022-12-25T03:58:23.456Z,4.83
2022-12-25T04:01:08.955Z,4.82
2022-12-25T04:03:54.215Z,4.78
2022-12-25T04:06:39.269Z,4.80
2022-12-25T04:09:24.596Z,4.84
2022-12-25T04:12:29.723Z,4.84
2022-12-25T04:15:15.180Z,4.87
2022-12-25T04:18:00.476Z,4.82
2022-12-25T04:20:45.528Z,4.82
2022-12-25T04:23:30.749Z,4.86
2022-12-25T04:26:17.365Z,4.87
2022-12-25T04:29:02.628Z,4.85
2022-12-25T04:31:47.956Z,4.84
2022-12-25T04:34:33.680Z,4.84
2022-12-25T04:37:00.397Z,4.84
2022-12-25T04:39:27.014Z,4.84
2022-12-25T04:41:53.939Z,4.84
2022-12-25T04:44:20.510Z,4.84
2022-12-25T04:46:47.207Z,4.84
2022-12-25T04:49:14.122Z,4.83
2022-12-25T04:51:40.811Z,4.79
2022-12-25T04:54:07.460Z,4.84
2022-12-25T04:56:35.660Z,4.84
2022-12-25T04:59:06.172Z,4.83
2022-12-25T05:01:33.012Z,4.83
2022-12-25T05:03:59.868Z,4.81
2022-12-25T05:06:27.634Z,4.79
2022-12-25T05:08:54.255Z,4.77
2022-12-25T05:11:21.122Z,4.76
2022-12-25T05:13:47.927Z,4.75
2022-12-25T05:16:20.047Z,4.75
2022-12-25T05:18:49.652Z,4.73
2022-12-25T05:21:16.810Z,4.74
2022-12-25T05:23:48.648Z,4.74
2022-12-25T05:26:18.431Z,4.75
2022-12-25T05:28:45.256Z,4.75
2022-12-25T05:31:11.899Z,4.74
2022-12-25T05:33:38.718Z,4.73
2022-12-25T05:36:07.141Z,4.68
2022-12-25T05:38:33.878Z,4.73
2022-12-25T05:41:01.000Z,4.69
2022-12-25T05:43:28.814Z,4.58
2022-12-25T05:45:55.447Z,4.63
2022-12-25T05:48:22.365Z,4.60
2022-12-25T05:50:49.021Z,4.56
2022-12-25T05:53:16.140Z,4.52
2022-12-25T05:55:44.535Z,4.51
2022-12-25T05:58:12.581Z,4.49
2022-12-25T06:00:40.959Z,4.52
2022-12-25T06:03:07.722Z,4.57
2022-12-25T06:05:34.392Z,4.62
2022-12-25T06:08:01.021Z,4.63
2022-12-25T06:10:27.989Z,4.68
2022-12-25T06:12:54.725Z,4.66
2022-12-25T06:15:21.302Z,4.67
2022-12-25T06:17:48.243Z,4.68
2022-12-25T06:20:14.855Z,4.67
2022-12-25T06:22:41.554Z,4.72
2022-12-25T06:25:08.901Z,4.78
2022-12-25T06:27:35.721Z,4.83
2022-12-25T06:30:02.785Z,4.92
2022-12-25T06:32:29.638Z,4.99
2022-12-25T06:34:56.300Z,5.02
2022-12-25T06:37:22.878Z,5.13
2022-12-25T06:39:49.650Z,5.16
2022-12-25T06:42:16.320Z,5.22
2022-12-25T06:44:42.935Z,5.29
2022-12-25T06:47:09.674Z,5.34
2022-12-25T06:49:36.477Z,5.36
2022-12-25T06:52:03.241Z,5.41
2022-12-25T06:54:30.422Z,5.44
2022-12-25T06:56:57.096Z,5.50
2022-12-25T06:59:23.863Z,5.51
2022-12-25T07:01:56.114Z,5.59
2022-12-25T07:04:28.529Z,5.62
2022-12-25T07:06:55.261Z,5.66
2022-12-25T07:09:21.924Z,5.70
2022-12-25T07:11:48.522Z,5.74
2022-12-25T07:14:24.305Z,5.77
2022-12-25T07:16:51.684Z,5.75
2022-12-25T07:19:19.382Z,5.80
2022-12-25T07:21:46.348Z,5.81
2022-12-25T07:24:18.757Z,5.81
2022-12-25T07:26:45.554Z,5.80
2022-12-25T07:29:12.292Z,5.79
2022-12-25T07:31:39.124Z,5.77
2022-12-25T07:34:05.980Z,5.73
2022-12-25T07:36:32.615Z,5.75
2022-12-25T07:38:59.462Z,5.76
2022-12-25T07:41:26.270Z,5.76
2022-12-25T07:43:53.901Z,5.79
2022-12-25T07:46:22.317Z,5.79
2022-12-25T07:48:49.840Z,5.82
2022-12-25T07:51:16.520Z,5.85
2022-12-25T07:53:43.553Z,5.87
2022-12-25T07:56:12.300Z,5.91
2022-12-25T07:58:38.990Z,5.94
2022-12-25T08:01:12.035Z,6.00
2022-12-25T08:03:39.030Z,6.03
2022-12-25T08:06:08.218Z,6.06
2022-12-25T08:08:36.262Z,6.10
2022-12-25T08:11:03.723Z,6.15
2022-12-25T08:13:32.069Z,6.16
2022-12-25T08:16:04.150Z,6.18
2022-12-25T08:18:32.260Z,6.23
2022-12-25T08:21:04.349Z,6.26
2022-12-25T08:23:33.418Z,6.31
2022-12-25T08:26:05.158Z,6.33
2022-12-25T08:28:34.437Z,6.35
2022-12-25T08:31:07.470Z,6.40
2022-12-25T08:33:34.437Z,6.44
2022-12-25T08:36:07.166Z,6.49
2022-12-25T08:38:33.955Z,6.57
2022-12-25T08:41:00.886Z,6.63
2022-12-25T08:43:27.799Z,6.75
2022-12-25T08:45:54.461Z,6.82
2022-12-25T08:48:21.376Z,6.87
2022-12-25T08:50:50.095Z,6.88
2022-12-25T08:53:17.391Z,6.82
2022-12-25T08:55:44.395Z,6.93
2022-12-25T08:58:11.514Z,6.95
2022-12-25T09:00:38.311Z,6.97
2022-12-25T09:03:05.067Z,7.01
2022-12-25T09:05:39.670Z,7.05
2022-12-25T09:08:06.562Z,7.09
2022-12-25T09:10:36.825Z,7.12
2022-12-25T09:13:04.719Z,7.18
2022-12-25T09:15:31.883Z,7.22
2022-12-25T09:17:58.722Z,7.27
2022-12-25T09:20:25.585Z,7.32
2022-12-25T09:22:52.204Z,7.37
2022-12-25T09:25:18.961Z,7.40
2022-12-25T09:27:45.800Z,7.46
2022-12-25T09:30:12.654Z,7.48
2022-12-25T09:32:42.152Z,7.53
2022-12-25T09:35:09.307Z,7.60
2022-12-25T09:37:36.254Z,7.63
2022-12-25T09:40:03.748Z,7.70
2022-12-25T09:42:32.807Z,7.77
2022-12-25T09:45:03.103Z,7.85
2022-12-25T09:47:34.175Z,7.89
2022-12-25T09:50:07.969Z,7.95
2022-12-25T09:52:52.997Z,7.99
2022-12-25T09:55:25.494Z,8.02
2022-12-25T09:57:56.089Z,8.00
2022-12-25T10:00:25.831Z,8.05
2022-12-25T10:03:34.393Z,8.06
2022-12-25T10:06:13.222Z,8.08
2022-12-25T10:09:05.505Z,8.10
2022-12-25T10:11:49.835Z,8.10
2022-12-25T10:14:22.703Z,8.12
2022-12-25T10:16:52.150Z,8.15
2022-12-25T10:19:33.634Z,8.16
2022-12-25T10:22:11.305Z,8.24
2022-12-25T10:24:47.483Z,8.27
2022-12-25T10:27:19.666Z,8.36
2022-12-25T10:29:52.609Z,8.43
2022-12-25T10:32:19.257Z,8.45
2022-12-25T10:34:45.965Z,8.48
2022-12-25T10:37:13.057Z,8.49
2022-12-25T10:39:45.996Z,8.46
2022-12-25T10:42:27.045Z,8.52
2022-12-25T10:44:56.780Z,8.53
2022-12-25T10:47:26.027Z,8.58
2022-12-25T10:49:54.258Z,8.59
2022-12-25T10:52:24.057Z,8.56
2022-12-25T10:54:51.270Z,8.60
2022-12-25T10:57:21.925Z,8.60
2022-12-25T10:59:57.402Z,8.61
2022-12-25T11:02:24.448Z,8.69
2022-12-25T11:04:52.729Z,8.68
2022-12-25T11:07:19.339Z,8.68
2022-12-25T11:09:57.786Z,8.71
2022-12-25T11:12:42.225Z,8.65
2022-12-25T11:15:40.097Z,8.75
2022-12-25T11:18:23.285Z,8.77
2022-12-25T11:20:58.523Z,8.81
2022-12-25T11:23:27.638Z,8.82
2022-12-25T11:26:15.276Z,8.82
2022-12-25T11:28:44.052Z,8.81
2022-12-25T11:31:20.265Z,8.80
2022-12-25T11:33:57.369Z,8.82
2022-12-25T11:36:27.067Z,8.81
2022-12-25T11:38:53.752Z,8.80
2022-12-25T11:41:25.857Z,8.80
2022-12-25T11:43:59.548Z,8.78
2022-12-25T11:46:38.623Z,8.76
2022-12-25T11:49:08.761Z,8.80
2022-12-25T11:51:41.314Z,8.83
2022-12-25T11:54:17.222Z,8.87
2022-12-25T11:56:43.952Z,8.88
2022-12-25T11:59:21.468Z,8.97
2022-12-25T12:02:03.867Z,8.98
2022-12-25T12:04:43.095Z,9.02
2022-12-25T12:07:30.889Z,9.03
2022-12-25T12:10:15.380Z,9.04
2022-12-25T12:12:50.451Z,9.04
2022-12-25T12:15:49.632Z,9.03
2022-12-25T12:18:29.921Z,9.00
2022-12-25T12:21:11.240Z,8.95
2022-12-25T12:23:56.401Z,8.99
2022-12-25T12:26:31.674Z,9.01
2022-12-25T12:29:01.327Z,9.02
2022-12-25T12:31:42.543Z,9.03
2022-12-25T12:34:23.665Z,9.03
2022-12-25T12:36:54.063Z,9.05
2022-12-25T12:39:25.968Z,9.06
2022-12-25T12:41:53.686Z,9.06
2022-12-25T12:44:27.458Z,9.04
2022-12-25T12:46:56.569Z,9.01
2022-12-25T12:49:34.780Z,9.01
2022-12-25T12:52:12.201Z,9.00
2022-12-25T12:55:09.023Z,8.97
2022-12-25T12:57:39.943Z,8.97
2022-12-25T13:00:19.143Z,8.95
2022-12-25T13:02:58.085Z,8.94
2022-12-25T13:05:54.586Z,8.96
2022-12-25T13:09:07.545Z,8.95
2022-12-25T13:11:43.984Z,8.93
2022-12-25T13:14:17.218Z,8.95
2022-12-25T13:16:47.140Z,8.97
2022-12-25T13:19:18.151Z,8.98
2022-12-25T13:22:00.581Z,8.95
2022-12-25T13:24:32.642Z,8.98
2022-12-25T13:27:00.516Z,8.98
2022-12-25T13:29:37.105Z,8.98
2022-12-25T13:32:07.228Z,8.97
2022-12-25T13:34:34.411Z,8.94
2022-12-25T13:37:13.754Z,8.95
2022-12-25T13:39:56.842Z,8.97
2022-12-25T13:42:31.655Z,8.98
2022-12-25T13:45:18.604Z,8.97
2022-12-25T13:47:51.434Z,8.97
2022-12-25T13:50:31.856Z,8.97
2022-12-25T13:53:11.608Z,8.93
2022-12-25T13:55:39.688Z,8.89
2022-12-25T13:58:07.659Z,8.88
2022-12-25T14:00:53.405Z,8.89
2022-12-25T14:03:23.788Z,8.90
2022-12-25T14:05:59.354Z,8.91
2022-12-25T14:08:29.130Z,8.92
2022-12-25T14:10:56.344Z,8.95
2022-12-25T14:13:27.751Z,8.93
2022-12-25T14:15:56.711Z,8.90
2022-12-25T14:18:24.855Z,8.87
2022-12-25T14:21:15.658Z,8.86
2022-12-25T14:23:46.745Z,8.83
2022-12-25T14:26:16.634Z,8.81
2022-12-25T14:28:48.648Z,8.78
2022-12-25T14:31:15.620Z,8.73
2022-12-25T14:33:42.996Z,8.75
2022-12-25T14:36:13.260Z,8.69
2022-12-25T14:38:42.579Z,8.65
2022-12-25T14:41:33.800Z,8.62
2022-12-25T14:44:03.976Z,8.56
2022-12-25T14:46:32.951Z,8.51
2022-12-25T14:49:23.080Z,8.37
2022-12-25T14:51:50.429Z,8.38
2022-12-25T14:54:22.629Z,8.33
2022-12-25T14:56:51.890Z,8.26
2022-12-25T14:59:25.439Z,8.16
2022-12-25T15:01:56.279Z,8.13
2022-12-25T15:04:23.968Z,8.07
2022-12-25T15:07:07.555Z,7.99
2022-12-25T15:09:35.961Z,7.92
2022-12-25T15:12:03.140Z,7.83
2022-12-25T15:14:31.741Z,7.72
2022-12-25T15:17:01.359Z,7.62
2022-12-25T15:19:38.406Z,7.55
2022-12-25T15:22:06.172Z,7.43
2022-12-25T15:24:33.361Z,7.31
2022-12-25T15:27:00.843Z,7.19
2022-12-25T15:30:00.237Z,7.06
2022-12-25T15:32:24.529Z,6.93
2022-12-25T15:34:51.464Z,6.83
2022-12-25T15:37:19.008Z,6.71
2022-12-25T15:39:46.461Z,6.62
2022-12-25T15:42:18.423Z,6.52
2022-12-25T15:44:45.467Z,6.45
2022-12-25T15:47:14.439Z,6.38
2022-12-25T15:49:41.388Z,6.33
2022-12-25T15:52:11.073Z,6.30
2022-12-25T15:54:38.071Z,6.27
2022-12-25T15:57:07.153Z,6.22
2022-12-25T15:59:34.537Z,6.17
2022-12-25T16:02:03.209Z,6.15
2022-12-25T16:04:31.421Z,6.15
2022-12-25T16:06:58.705Z,6.11
2022-12-25T16:09:26.698Z,6.06
2022-12-25T16:11:53.331Z,6.08
2022-12-25T16:14:20.183Z,6.07
2022-12-25T16:16:47.146Z,6.04
2022-12-25T16:19:13.822Z,6.05
2022-12-25T16:21:44.722Z,6.01
2022-12-25T16:24:12.377Z,6.00
2022-12-25T16:26:39.325Z,5.97
2022-12-25T16:29:07.478Z,5.90
2022-12-25T16:31:35.124Z,5.91
2022-12-25T16:34:01.890Z,5.86
2022-12-25T16:36:28.572Z,5.85
2022-12-25T16:38:56.093Z,5.81
2022-12-25T16:41:22.779Z,5.78
2022-12-25T16:43:49.452Z,5.77
2022-12-25T16:46:19.070Z,5.75
2022-12-25T16:48:46.039Z,5.74
2022-12-25T16:51:15.697Z,5.72
2022-12-25T16:53:43.120Z,5.72
2022-12-25T16:56:12.265Z,5.71
2022-12-25T16:58:39.296Z,5.71
2022-12-25T17:01:11.126Z,5.67
2022-12-25T17:03:39.014Z,5.68
2022-12-25T17:06:16.875Z,5.69
2022-12-25T17:08:43.789Z,5.67
2022-12-25T17:11:11.240Z,5.64
2022-12-25T17:13:38.061Z,5.57
2022-12-25T17:16:22.986Z,5.51
2022-12-25T17:18:57.177Z,5.42
2022-12-25T17:21:25.073Z,5.36
2022-12-25T17:23:54.305Z,5.28
2022-12-25T17:26:25.180Z,5.19
2022-12-25T17:28:52.011Z,5.12
2022-12-25T17:31:18.949Z,5.04
2022-12-25T17:33:46.239Z,5.03
2022-12-25T17:36:16.264Z,5.03
2022-12-25T17:38:43.361Z,5.02
2022-12-25T17:41:12.924Z,4.96
2022-12-25T17:43:41.410Z,4.96
2022-12-25T17:46:11.934Z,4.95
2022-12-25T17:48:38.849Z,4.95
2022-12-25T17:51:08.702Z,4.95
2022-12-25T17:53:37.092Z,4.94
2022-12-25T17:56:04.437Z,4.96
2022-12-25T17:58:31.780Z,4.91
2022-12-25T18:01:04.358Z,4.88
2022-12-25T18:03:31.260Z,4.81
2022-12-25T18:06:00.619Z,4.82
2022-12-25T18:08:32.431Z,4.83
2022-12-25T18:11:05.334Z,4.79
2022-12-25T18:13:32.612Z,4.82
2022-12-25T18:16:04.328Z,4.78
2022-12-25T18:18:31.337Z,4.75
2022-12-25T18:20:58.024Z,4.73
2022-12-25T18:23:25.841Z,4.70
2022-12-25T18:25:53.082Z,4.62
2022-12-25T18:28:19.835Z,4.57
2022-12-25T18:30:47.464Z,4.57
2022-12-25T18:33:14.541Z,4.51
2022-12-25T18:35:42.923Z,4.47
2022-12-25T18:38:10.914Z,4.44
2022-12-25T18:40:42.338Z,4.40
2022-12-25T18:43:09.424Z,4.36
2022-12-25T18:45:36.482Z,4.29
2022-12-25T18:48:05.637Z,4.23
2022-12-25T18:50:37.684Z,4.17
2022-12-25T18:53:05.105Z,4.13
2022-12-25T18:55:32.322Z,4.10
2022-12-25T18:57:59.034Z,4.07
2022-12-25T19:00:26.143Z,4.06
2022-12-25T19:02:58.608Z,3.99
2022-12-25T19:05:26.074Z,3.99
2022-12-25T19:07:53.409Z,3.95
2022-12-25T19:10:20.151Z,3.89
2022-12-25T19:12:46.786Z,3.80
2022-12-25T19:15:13.800Z,3.77
2022-12-25T19:17:40.429Z,3.73
2022-12-25T19:20:07.841Z,3.66
2022-12-25T19:22:34.694Z,3.60
2022-12-25T19:25:01.436Z,3.56
2022-12-25T19:27:27.989Z,3.49
2022-12-25T19:29:54.685Z,3.41
2022-12-25T19:32:21.322Z,3.32
2022-12-25T19:34:48.003Z,3.29
2022-12-25T19:37:15.181Z,3.23
2022-12-25T19:39:46.874Z,3.16
2022-12-25T19:42:16.099Z,3.18
2022-12-25T19:44:44.249Z,3.20
2022-12-25T19:47:11.437Z,3.18
2022-12-25T19:49:39.876Z,3.11
2022-12-25T19:52:07.538Z,3.06
2022-12-25T19:54:34.162Z,3.02
2022-12-25T19:57:00.866Z,2.97
2022-12-25T19:59:27.762Z,2.92
2022-12-25T20:01:54.796Z,2.89
2022-12-25T20:04:21.611Z,2.83
2022-12-25T20:06:48.310Z,2.78
2022-12-25T20:09:21.013Z,2.72
2022-12-25T20:11:48.349Z,2.67
2022-12-25T20:14:16.710Z,2.65
2022-12-25T20:16:44.225Z,2.61
2022-12-25T20:19:14.488Z,2.61
2022-12-25T20:21:41.764Z,2.56
2022-12-25T20:24:11.226Z,2.55
2022-12-25T20:26:39.305Z,2.51
2022-12-25T20:29:06.347Z,2.50
2022-12-25T20:31:34.951Z,2.49
2022-12-25T20:34:06.684Z,2.47
2022-12-25T20:36:37.176Z,2.51
2022-12-25T20:39:06.517Z,2.45
2022-12-25T20:41:33.132Z,2.44
2022-12-25T20:44:02.047Z,2.39
2022-12-25T20:46:28.897Z,2.37
2022-12-25T20:48:55.532Z,2.33
2022-12-25T20:51:24.081Z,2.35
2022-12-25T20:53:51.539Z,2.31
2022-12-25T20:56:21.050Z,2.27
2022-12-25T20:58:47.853Z,2.26
2022-12-25T21:01:17.950Z,2.24
2022-12-25T21:03:45.350Z,2.20
2022-12-25T21:06:12.284Z,2.21
2022-12-25T21:08:39.515Z,2.16
2022-12-25T21:11:07.530Z,2.11
2022-12-25T21:13:36.728Z,2.10
2022-12-25T21:16:22.711Z,2.07
2022-12-25T21:18:51.195Z,2.08
2022-12-25T21:21:18.216Z,2.04
2022-12-25T21:23:45.939Z,2.02
2022-12-25T21:26:21.454Z,2.00
2022-12-25T21:28:50.640Z,1.98
2022-12-25T21:31:18.008Z,1.94
2022-12-25T21:33:54.956Z,1.96
2022-12-25T21:36:27.235Z,1.93
2022-12-25T21:38:56.895Z,1.90
2022-12-25T21:41:24.458Z,1.90
2022-12-25T21:43:51.210Z,1.88
2022-12-25T21:46:18.426Z,1.82
2022-12-25T21:48:45.749Z,1.79
2022-12-25T21:51:34.729Z,1.79
2022-12-25T21:54:02.045Z,1.80
2022-12-25T21:56:30.950Z,1.81
2022-12-25T21:59:05.708Z,1.81
2022-12-25T22:01:32.804Z,1.82
2022-12-25T22:04:04.627Z,1.84
2022-12-25T22:06:50.624Z,1.85
2022-12-25T22:09:17.330Z,1.88
2022-12-25T22:12:02.850Z,1.90
2022-12-25T22:14:51.250Z,1.88
2022-12-25T22:17:46.594Z,1.88
2022-12-25T22:20:20.606Z,1.88
2022-12-25T22:22:47.974Z,1.93
2022-12-25T22:25:15.662Z,1.96
2022-12-25T22:27:44.285Z,1.99
2022-12-25T22:30:14.667Z,2.01
2022-12-25T22:32:41.960Z,2.02
2022-12-25T22:35:09.531Z,2.04
2022-12-25T22:37:36.245Z,2.07
2022-12-25T22:40:04.296Z,2.08
2022-12-25T22:42:31.067Z,2.08
2022-12-25T22:44:57.861Z,2.13
2022-12-25T22:47:24.597Z,2.14
2022-12-25T22:49:51.306Z,2.14
2022-12-25T22:52:18.014Z,2.15
2022-12-25T22:54:44.732Z,2.13
2022-12-25T22:57:11.358Z,2.21
2022-12-25T22:59:38.113Z,2.23
2022-12-25T23:02:05.962Z,2.25
2022-12-25T23:04:32.829Z,2.25
2022-12-25T23:06:59.617Z,2.25
2022-12-25T23:09:29.672Z,2.20
2022-12-25T23:11:58.223Z,2.22
2022-12-25T23:14:41.988Z,2.21
2022-12-25T23:17:31.793Z,2.27
2022-12-25T23:20:18.415Z,2.26
2022-12-25T23:23:05.197Z,2.27
2022-12-25T23:25:50.768Z,2.28
2022-12-25T23:28:37.699Z,2.28
2022-12-25T23:31:04.666Z,2.28
2022-12-25T23:33:31.557Z,2.27
2022-12-25T23:35:58.312Z,2.24
2022-12-25T23:38:24.992Z,2.21
2022-12-25T23:40:52.395Z,2.22
2022-12-25T23:43:18.986Z,2.16
2022-12-25T23:45:45.756Z,2.10
2022-12-25T23:48:12.367Z,2.08
2022-12-25T23:50:38.997Z,2.08
2022-12-25T23:53:05.656Z,2.04
2022-12-25T23:55:33.986Z,2.06
2022-12-25T23:58:00.589Z,2.03
